sensor_id;sensor_type;location;lat;lon;timestamp;P1;durP1;ratioP1;P2;durP2;ratioP2
53644;SDS011;39547;45.554;12.068;2022-12-18T00:01:56;19.02;;;8.60;;
53644;SDS011;39547;45.554;12.068;2022-12-18T00:08:02;19.52;;;9.07;;
53644;SDS011;39547;45.554;12.068;2022-12-18T00:14:04;17.45;;;8.00;;
53644;SDS011;39547;45.554;12.068;2022-12-18T00:20:05;18.38;;;8.52;;
53644;SDS011;39547;45.554;12.068;2022-12-18T00:26:16;17.92;;;7.93;;
53644;SDS011;39547;45.554;12.068;2022-12-18T00:32:20;17.33;;;7.88;;
53644;SDS011;39547;45.554;12.068;2022-12-18T00:38:22;17.60;;;7.63;;
53644;SDS011;39547;45.554;12.068;2022-12-18T00:44:24;17.17;;;7.72;;
53644;SDS011;39547;45.554;12.068;2022-12-18T00:50:26;18.00;;;8.32;;
53644;SDS011;39547;45.554;12.068;2022-12-18T00:56:28;19.40;;;8.27;;
53644;SDS011;39547;45.554;12.068;2022-12-18T01:02:30;18.15;;;8.18;;
53644;SDS011;39547;45.554;12.068;2022-12-18T01:08:31;17.35;;;7.50;;
53644;SDS011;39547;45.554;12.068;2022-12-18T01:14:33;18.35;;;8.20;;
53644;SDS011;39547;45.554;12.068;2022-12-18T01:20:35;20.20;;;9.20;;
53644;SDS011;39547;45.554;12.068;2022-12-18T01:32:42;21.75;;;9.45;;
53644;SDS011;39547;45.554;12.068;2022-12-18T01:38:43;18.45;;;8.57;;
53644;SDS011;39547;45.554;12.068;2022-12-18T01:51:17;17.27;;;7.70;;
53644;SDS011;39547;45.554;12.068;2022-12-18T01:57:19;18.15;;;7.85;;
53644;SDS011;39547;45.554;12.068;2022-12-18T02:03:21;17.98;;;7.75;;
53644;SDS011;39547;45.554;12.068;2022-12-18T02:09:25;17.40;;;7.75;;
53644;SDS011;39547;45.554;12.068;2022-12-18T02:15:39;17.02;;;7.05;;
53644;SDS011;39547;45.554;12.068;2022-12-18T02:21:59;17.50;;;7.45;;
53644;SDS011;39547;45.554;12.068;2022-12-18T02:28:06;16.27;;;7.20;;
53644;SDS011;39547;45.554;12.068;2022-12-18T02:34:12;17.38;;;7.30;;
53644;SDS011;39547;45.554;12.068;2022-12-18T02:40:17;16.63;;;7.18;;
53644;SDS011;39547;45.554;12.068;2022-12-18T02:59:17;17.88;;;7.45;;
53644;SDS011;39547;45.554;12.068;2022-12-18T03:05:39;17.17;;;7.43;;
53644;SDS011;39547;45.554;12.068;2022-12-18T03:11:47;17.92;;;7.70;;
53644;SDS011;39547;45.554;12.068;2022-12-18T03:18:20;18.00;;;7.15;;
53644;SDS011;39547;45.554;12.068;2022-12-18T03:24:29;16.88;;;6.90;;
53644;SDS011;39547;45.554;12.068;2022-12-18T03:30:34;16.73;;;6.85;;
53644;SDS011;39547;45.554;12.068;2022-12-18T03:36:39;17.38;;;7.10;;
53644;SDS011;39547;45.554;12.068;2022-12-18T03:48:53;17.55;;;7.35;;
53644;SDS011;39547;45.554;12.068;2022-12-18T03:55:01;16.40;;;6.82;;
53644;SDS011;39547;45.554;12.068;2022-12-18T04:01:06;18.17;;;7.30;;
53644;SDS011;39547;45.554;12.068;2022-12-18T04:07:11;18.25;;;7.10;;
53644;SDS011;39547;45.554;12.068;2022-12-18T04:13:28;18.30;;;7.10;;
53644;SDS011;39547;45.554;12.068;2022-12-18T04:19:33;17.50;;;7.30;;
53644;SDS011;39547;45.554;12.068;2022-12-18T04:25:37;18.27;;;7.33;;
53644;SDS011;39547;45.554;12.068;2022-12-18T04:31:42;19.58;;;7.95;;
53644;SDS011;39547;45.554;12.068;2022-12-18T04:37:44;18.92;;;7.63;;
53644;SDS011;39547;45.554;12.068;2022-12-18T04:43:46;19.08;;;8.00;;
53644;SDS011;39547;45.554;12.068;2022-12-18T04:49:47;20.33;;;8.15;;
53644;SDS011;39547;45.554;12.068;2022-12-18T04:55:49;18.02;;;7.63;;
53644;SDS011;39547;45.554;12.068;2022-12-18T05:01:51;18.50;;;7.80;;
53644;SDS011;39547;45.554;12.068;2022-12-18T05:07:54;18.95;;;8.23;;
53644;SDS011;39547;45.554;12.068;2022-12-18T05:13:57;20.25;;;7.93;;
53644;SDS011;39547;45.554;12.068;2022-12-18T05:19:59;18.38;;;7.90;;
53644;SDS011;39547;45.554;12.068;2022-12-18T05:26:01;18.70;;;7.80;;
53644;SDS011;39547;45.554;12.068;2022-12-18T05:32:04;18.20;;;7.90;;
53644;SDS011;39547;45.554;12.068;2022-12-18T05:38:06;18.92;;;7.85;;
53644;SDS011;39547;45.554;12.068;2022-12-18T05:44:07;18.95;;;8.10;;
53644;SDS011;39547;45.554;12.068;2022-12-18T05:50:09;18.27;;;7.97;;
53644;SDS011;39547;45.554;12.068;2022-12-18T05:56:15;19.92;;;8.27;;
53644;SDS011;39547;45.554;12.068;2022-12-18T06:02:20;19.40;;;8.40;;
53644;SDS011;39547;45.554;12.068;2022-12-18T06:08:24;20.50;;;8.90;;
53644;SDS011;39547;45.554;12.068;2022-12-18T06:14:25;20.10;;;8.95;;
53644;SDS011;39547;45.554;12.068;2022-12-18T06:20:27;21.30;;;9.00;;
53644;SDS011;39547;45.554;12.068;2022-12-18T06:26:29;19.52;;;8.13;;
53644;SDS011;39547;45.554;12.068;2022-12-18T06:32:30;20.25;;;8.68;;
53644;SDS011;39547;45.554;12.068;2022-12-18T06:38:35;21.30;;;9.27;;
53644;SDS011;39547;45.554;12.068;2022-12-18T06:44:38;22.20;;;9.98;;
53644;SDS011;39547;45.554;12.068;2022-12-18T06:50:42;21.83;;;9.13;;
53644;SDS011;39547;45.554;12.068;2022-12-18T06:56:44;23.42;;;9.73;;
53644;SDS011;39547;45.554;12.068;2022-12-18T07:02:47;21.20;;;9.25;;
53644;SDS011;39547;45.554;12.068;2022-12-18T07:08:49;20.45;;;9.60;;
53644;SDS011;39547;45.554;12.068;2022-12-18T07:14:52;20.83;;;9.27;;
53644;SDS011;39547;45.554;12.068;2022-12-18T07:20:53;23.20;;;10.23;;
53644;SDS011;39547;45.554;12.068;2022-12-18T07:26:55;21.58;;;8.57;;
53644;SDS011;39547;45.554;12.068;2022-12-18T07:32:57;20.67;;;8.98;;
53644;SDS011;39547;45.554;12.068;2022-12-18T07:38:59;22.77;;;10.10;;
53644;SDS011;39547;45.554;12.068;2022-12-18T07:45:02;21.45;;;9.68;;
53644;SDS011;39547;45.554;12.068;2022-12-18T07:51:05;22.90;;;9.88;;
53644;SDS011;39547;45.554;12.068;2022-12-18T07:57:07;22.20;;;9.90;;
53644;SDS011;39547;45.554;12.068;2022-12-18T08:03:09;22.45;;;10.25;;
53644;SDS011;39547;45.554;12.068;2022-12-18T08:09:11;23.23;;;10.20;;
53644;SDS011;39547;45.554;12.068;2022-12-18T08:15:13;22.25;;;10.07;;
53644;SDS011;39547;45.554;12.068;2022-12-18T08:21:16;21.33;;;9.68;;
53644;SDS011;39547;45.554;12.068;2022-12-18T08:27:19;21.67;;;10.07;;
53644;SDS011;39547;45.554;12.068;2022-12-18T08:33:20;21.70;;;9.88;;
53644;SDS011;39547;45.554;12.068;2022-12-18T08:39:22;20.48;;;9.13;;
53644;SDS011;39547;45.554;12.068;2022-12-18T08:45:24;20.30;;;9.23;;
53644;SDS011;39547;45.554;12.068;2022-12-18T08:51:27;20.80;;;9.07;;
53644;SDS011;39547;45.554;12.068;2022-12-18T08:57:28;21.05;;;8.98;;
53644;SDS011;39547;45.554;12.068;2022-12-18T09:03:30;20.90;;;9.10;;
53644;SDS011;39547;45.554;12.068;2022-12-18T09:09:33;22.55;;;9.73;;
53644;SDS011;39547;45.554;12.068;2022-12-18T09:15:39;21.33;;;9.70;;
53644;SDS011;39547;45.554;12.068;2022-12-18T09:21:42;25.30;;;10.02;;
53644;SDS011;39547;45.554;12.068;2022-12-18T09:27:46;20.58;;;9.35;;
53644;SDS011;39547;45.554;12.068;2022-12-18T09:33:48;20.83;;;9.23;;
53644;SDS011;39547;45.554;12.068;2022-12-18T09:39:50;22.95;;;9.40;;
53644;SDS011;39547;45.554;12.068;2022-12-18T09:45:53;19.63;;;8.07;;
53644;SDS011;39547;45.554;12.068;2022-12-18T09:52:00;20.17;;;8.52;;
53644;SDS011;39547;45.554;12.068;2022-12-18T10:04:11;19.83;;;8.70;;
53644;SDS011;39547;45.554;12.068;2022-12-18T10:10:26;20.48;;;8.93;;
53644;SDS011;39547;45.554;12.068;2022-12-18T10:29:15;19.52;;;8.82;;
53644;SDS011;39547;45.554;12.068;2022-12-18T10:35:19;19.52;;;8.18;;
53644;SDS011;39547;45.554;12.068;2022-12-18T10:41:25;19.13;;;8.80;;
53644;SDS011;39547;45.554;12.068;2022-12-18T10:47:27;19.58;;;8.38;;
53644;SDS011;39547;45.554;12.068;2022-12-18T10:53:30;19.20;;;8.07;;
53644;SDS011;39547;45.554;12.068;2022-12-18T10:59:33;21.25;;;9.60;;
53644;SDS011;39547;45.554;12.068;2022-12-18T11:06:01;20.02;;;8.63;;
53644;SDS011;39547;45.554;12.068;2022-12-18T11:12:16;19.48;;;8.40;;
53644;SDS011;39547;45.554;12.068;2022-12-18T11:18:32;18.58;;;7.85;;
53644;SDS011;39547;45.554;12.068;2022-12-18T11:24:35;18.83;;;7.75;;
53644;SDS011;39547;45.554;12.068;2022-12-18T11:30:41;18.38;;;7.70;;
53644;SDS011;39547;45.554;12.068;2022-12-18T11:36:44;19.27;;;8.20;;
53644;SDS011;39547;45.554;12.068;2022-12-18T11:42:49;18.95;;;8.07;;
53644;SDS011;39547;45.554;12.068;2022-12-18T11:49:17;19.10;;;8.45;;
53644;SDS011;39547;45.554;12.068;2022-12-18T12:08:34;16.92;;;7.32;;
53644;SDS011;39547;45.554;12.068;2022-12-18T12:15:03;16.00;;;6.70;;
53644;SDS011;39547;45.554;12.068;2022-12-18T12:21:28;16.42;;;6.75;;
53644;SDS011;39547;45.554;12.068;2022-12-18T12:34:26;16.52;;;6.95;;
53644;SDS011;39547;45.554;12.068;2022-12-18T12:40:35;15.77;;;6.60;;
53644;SDS011;39547;45.554;12.068;2022-12-18T12:46:43;15.43;;;6.28;;
53644;SDS011;39547;45.554;12.068;2022-12-18T12:52:46;16.20;;;6.35;;
53644;SDS011;39547;45.554;12.068;2022-12-18T13:05:09;16.42;;;7.03;;
53644;SDS011;39547;45.554;12.068;2022-12-18T13:11:28;15.07;;;6.67;;
53644;SDS011;39547;45.554;12.068;2022-12-18T13:18:01;15.77;;;6.60;;
53644;SDS011;39547;45.554;12.068;2022-12-18T13:24:25;17.02;;;7.03;;
53644;SDS011;39547;45.554;12.068;2022-12-18T13:36:33;17.10;;;7.22;;
53644;SDS011;39547;45.554;12.068;2022-12-18T13:42:37;15.90;;;6.53;;
53644;SDS011;39547;45.554;12.068;2022-12-18T13:55:05;17.40;;;7.15;;
53644;SDS011;39547;45.554;12.068;2022-12-18T14:01:21;17.42;;;7.25;;
53644;SDS011;39547;45.554;12.068;2022-12-18T14:07:26;16.00;;;6.50;;
53644;SDS011;39547;45.554;12.068;2022-12-18T14:13:33;15.60;;;5.97;;
53644;SDS011;39547;45.554;12.068;2022-12-18T14:19:40;16.02;;;6.53;;
53644;SDS011;39547;45.554;12.068;2022-12-18T14:25:45;15.25;;;5.97;;
53644;SDS011;39547;45.554;12.068;2022-12-18T14:32:07;15.45;;;6.13;;
53644;SDS011;39547;45.554;12.068;2022-12-18T14:44:17;15.95;;;6.15;;
53644;SDS011;39547;45.554;12.068;2022-12-18T14:50:19;15.85;;;6.30;;
53644;SDS011;39547;45.554;12.068;2022-12-18T14:56:25;16.77;;;6.75;;
53644;SDS011;39547;45.554;12.068;2022-12-18T15:02:32;17.17;;;7.10;;
53644;SDS011;39547;45.554;12.068;2022-12-18T15:08:36;17.80;;;7.30;;
53644;SDS011;39547;45.554;12.068;2022-12-18T15:14:39;18.67;;;7.50;;
53644;SDS011;39547;45.554;12.068;2022-12-18T15:26:49;17.98;;;7.60;;
53644;SDS011;39547;45.554;12.068;2022-12-18T15:32:52;19.20;;;8.07;;
53644;SDS011;39547;45.554;12.068;2022-12-18T15:39:27;19.45;;;7.35;;
53644;SDS011;39547;45.554;12.068;2022-12-18T15:45:29;18.02;;;7.85;;
53644;SDS011;39547;45.554;12.068;2022-12-18T15:51:37;18.02;;;7.72;;
53644;SDS011;39547;45.554;12.068;2022-12-18T15:57:39;18.90;;;8.13;;
53644;SDS011;39547;45.554;12.068;2022-12-18T16:03:41;18.80;;;8.50;;
53644;SDS011;39547;45.554;12.068;2022-12-18T16:09:43;19.50;;;8.05;;
53644;SDS011;39547;45.554;12.068;2022-12-18T16:15:45;19.15;;;8.85;;
53644;SDS011;39547;45.554;12.068;2022-12-18T16:21:47;20.42;;;8.77;;
53644;SDS011;39547;45.554;12.068;2022-12-18T16:27:50;23.60;;;10.88;;
53644;SDS011;39547;45.554;12.068;2022-12-18T16:34:12;20.55;;;9.30;;
53644;SDS011;39547;45.554;12.068;2022-12-18T16:40:15;25.05;;;10.82;;
53644;SDS011;39547;45.554;12.068;2022-12-18T16:46:18;24.00;;;10.57;;
53644;SDS011;39547;45.554;12.068;2022-12-18T16:52:20;25.40;;;11.90;;
53644;SDS011;39547;45.554;12.068;2022-12-18T16:58:21;28.50;;;14.40;;
53644;SDS011;39547;45.554;12.068;2022-12-18T17:04:23;30.13;;;14.82;;
53644;SDS011;39547;45.554;12.068;2022-12-18T17:10:25;49.92;;;25.35;;
53644;SDS011;39547;45.554;12.068;2022-12-18T17:16:27;35.67;;;18.88;;
53644;SDS011;39547;45.554;12.068;2022-12-18T17:22:29;44.60;;;23.27;;
53644;SDS011;39547;45.554;12.068;2022-12-18T17:28:30;40.92;;;22.63;;
53644;SDS011;39547;45.554;12.068;2022-12-18T17:34:33;38.58;;;22.10;;
53644;SDS011;39547;45.554;12.068;2022-12-18T17:40:36;45.10;;;24.42;;
53644;SDS011;39547;45.554;12.068;2022-12-18T17:46:40;41.13;;;22.37;;
53644;SDS011;39547;45.554;12.068;2022-12-18T17:52:42;46.10;;;23.75;;
53644;SDS011;39547;45.554;12.068;2022-12-18T17:58:43;46.20;;;24.92;;
53644;SDS011;39547;45.554;12.068;2022-12-18T18:04:46;43.45;;;23.52;;
53644;SDS011;39547;45.554;12.068;2022-12-18T18:10:48;45.83;;;24.58;;
53644;SDS011;39547;45.554;12.068;2022-12-18T18:16:51;42.90;;;24.30;;
53644;SDS011;39547;45.554;12.068;2022-12-18T18:22:55;47.92;;;27.40;;
53644;SDS011;39547;45.554;12.068;2022-12-18T18:28:58;49.17;;;28.23;;
53644;SDS011;39547;45.554;12.068;2022-12-18T18:34:59;52.05;;;29.02;;
53644;SDS011;39547;45.554;12.068;2022-12-18T18:41:02;55.38;;;30.45;;
53644;SDS011;39547;45.554;12.068;2022-12-18T18:47:05;57.38;;;32.00;;
53644;SDS011;39547;45.554;12.068;2022-12-18T18:53:06;54.58;;;29.50;;
53644;SDS011;39547;45.554;12.068;2022-12-18T18:59:08;60.60;;;32.42;;
53644;SDS011;39547;45.554;12.068;2022-12-18T19:05:10;60.15;;;33.08;;
53644;SDS011;39547;45.554;12.068;2022-12-18T19:11:12;81.15;;;40.70;;
53644;SDS011;39547;45.554;12.068;2022-12-18T19:17:33;76.85;;;38.15;;
53644;SDS011;39547;45.554;12.068;2022-12-18T19:23:36;69.45;;;34.67;;
53644;SDS011;39547;45.554;12.068;2022-12-18T19:29:38;61.20;;;31.98;;
53644;SDS011;39547;45.554;12.068;2022-12-18T19:35:40;60.17;;;30.58;;
53644;SDS011;39547;45.554;12.068;2022-12-18T19:41:43;50.97;;;28.77;;
53644;SDS011;39547;45.554;12.068;2022-12-18T19:47:44;52.30;;;29.10;;
53644;SDS011;39547;45.554;12.068;2022-12-18T19:53:46;70.68;;;34.58;;
53644;SDS011;39547;45.554;12.068;2022-12-18T19:59:49;77.07;;;39.65;;
53644;SDS011;39547;45.554;12.068;2022-12-18T20:05:51;91.63;;;43.00;;
53644;SDS011;39547;45.554;12.068;2022-12-18T20:11:52;78.80;;;39.83;;
53644;SDS011;39547;45.554;12.068;2022-12-18T20:17:54;96.45;;;44.60;;
53644;SDS011;39547;45.554;12.068;2022-12-18T20:23:56;82.63;;;40.85;;
53644;SDS011;39547;45.554;12.068;2022-12-18T20:29:59;83.72;;;42.65;;
53644;SDS011;39547;45.554;12.068;2022-12-18T20:36:04;89.25;;;44.28;;
53644;SDS011;39547;45.554;12.068;2022-12-18T20:42:08;83.57;;;43.17;;
53644;SDS011;39547;45.554;12.068;2022-12-18T20:48:10;118.03;;;59.83;;
53644;SDS011;39547;45.554;12.068;2022-12-18T20:54:12;101.60;;;52.22;;
53644;SDS011;39547;45.554;12.068;2022-12-18T21:00:14;115.05;;;53.00;;
53644;SDS011;39547;45.554;12.068;2022-12-18T21:06:16;91.75;;;47.15;;
53644;SDS011;39547;45.554;12.068;2022-12-18T21:12:19;90.57;;;47.47;;
53644;SDS011;39547;45.554;12.068;2022-12-18T21:18:41;103.05;;;51.65;;
53644;SDS011;39547;45.554;12.068;2022-12-18T21:24:43;101.50;;;51.55;;
53644;SDS011;39547;45.554;12.068;2022-12-18T21:30:44;91.45;;;46.00;;
53644;SDS011;39547;45.554;12.068;2022-12-18T21:36:46;95.07;;;47.65;;
53644;SDS011;39547;45.554;12.068;2022-12-18T21:42:49;106.70;;;52.05;;
53644;SDS011;39547;45.554;12.068;2022-12-18T21:49:10;86.95;;;45.85;;
53644;SDS011;39547;45.554;12.068;2022-12-18T21:55:21;71.97;;;40.33;;
53644;SDS011;39547;45.554;12.068;2022-12-18T22:01:22;82.40;;;41.38;;
53644;SDS011;39547;45.554;12.068;2022-12-18T22:07:24;78.07;;;40.05;;
53644;SDS011;39547;45.554;12.068;2022-12-18T22:13:26;70.32;;;37.88;;
53644;SDS011;39547;45.554;12.068;2022-12-18T22:19:28;66.72;;;35.45;;
53644;SDS011;39547;45.554;12.068;2022-12-18T22:25:30;68.00;;;34.95;;
53644;SDS011;39547;45.554;12.068;2022-12-18T22:31:31;63.42;;;32.30;;
53644;SDS011;39547;45.554;12.068;2022-12-18T22:37:34;59.53;;;32.03;;
53644;SDS011;39547;45.554;12.068;2022-12-18T22:43:35;65.15;;;33.75;;
53644;SDS011;39547;45.554;12.068;2022-12-18T22:49:38;62.35;;;32.67;;
53644;SDS011;39547;45.554;12.068;2022-12-18T22:55:39;64.45;;;33.42;;
53644;SDS011;39547;45.554;12.068;2022-12-18T23:01:41;55.88;;;30.98;;
53644;SDS011;39547;45.554;12.068;2022-12-18T23:07:43;52.75;;;27.35;;
53644;SDS011;39547;45.554;12.068;2022-12-18T23:13:44;55.80;;;30.75;;
53644;SDS011;39547;45.554;12.068;2022-12-18T23:19:47;50.53;;;27.10;;
53644;SDS011;39547;45.554;12.068;2022-12-18T23:25:48;50.58;;;27.15;;
53644;SDS011;39547;45.554;12.068;2022-12-18T23:31:50;54.55;;;29.35;;
53644;SDS011;39547;45.554;12.068;2022-12-18T23:37:52;52.55;;;27.65;;
53644;SDS011;39547;45.554;12.068;2022-12-18T23:43:54;49.85;;;26.25;;
53644;SDS011;39547;45.554;12.068;2022-12-18T23:49:57;45.13;;;23.65;;
53644;SDS011;39547;45.554;12.068;2022-12-18T23:55:59;44.95;;;23.17;;
